Time;durP1;ratioP1;P1;durP2;ratioP2;P2;SDS_P1;SDS_P2;PMS_P1;PMS_P2;Temp;Humidity;BMP_temperature;BMP_pressure;BME280_temperature;BME280_humidity;BME280_pressure;Samples;Min_cycle;Max_cycle;Signal;HPM_P1;HPM_P2
2021/12/22 00:00:12;;;;;;;;;;;0.20;88.10;;;;;;5011568;28;19921;-89
2021/12/22 00:02:46;;;;;;;;;;;0.20;88.10;;;;;;5011946;28;19999;-89
2021/12/22 00:05:18;;;;;;;;;;;0.20;88.20;;;;;;5017950;28;19909;-89
2021/12/22 00:07:45;;;;;;;;;;;0.10;88.10;;;;;;5014011;28;20043;-89
2021/12/22 00:10:12;;;;;;;;;;;0.10;88.20;;;;;;5018133;28;19929;-89
2021/12/22 00:12:39;;;;;;;;;;;0.10;88.30;;;;;;5021201;28;19912;-89
2021/12/22 00:15:06;;;;;;;;;;;0.10;88.30;;;;;;5018659;28;20176;-89
2021/12/22 00:17:33;;;;;;;;;;;0.10;88.30;;;;;;5011727;28;20279;-89
2021/12/22 00:20:00;;;;;;;;;;;0.10;88.30;;;;;;5025129;28;19940;-89
2021/12/22 00:22:27;;;;;;;;;;;0.10;88.30;;;;;;5017773;28;19939;-89
2021/12/22 00:24:54;;;;;;;;;;;0.10;88.30;;;;;;5020799;28;19909;-89
2021/12/22 00:27:21;;;;;;;;;;;0.10;88.40;;;;;;5023743;28;19909;-89
2021/12/22 00:29:50;;;;;;;;;;;0.10;88.50;;;;;;5027181;28;19917;-89
2021/12/22 00:32:17;;;;;;;;;;;0.10;88.50;;;;;;5016637;28;19913;-89
2021/12/22 00:34:48;;;;;;;;;;;0.10;88.50;;;;;;5017335;28;19935;-89
2021/12/22 00:37:17;;;;;;;;;;;0.10;88.50;;;;;;5018305;28;19916;-89
2021/12/22 00:39:44;;;;;;;;;;;0.10;88.50;;;;;;5008850;28;20374;-89
2021/12/22 00:42:12;;;;;;;;;;;0.10;88.60;;;;;;5014361;28;19924;-89
2021/12/22 00:44:40;;;;;;;;;;;0.10;88.60;;;;;;5031768;28;20117;-89
2021/12/22 00:47:07;;;;;;;;;;;0.10;88.60;;;;;;5020034;28;19935;-89
2021/12/22 00:49:34;;;;;;;;;;;0.10;88.70;;;;;;5017102;28;19909;-89
2021/12/22 00:52:02;;;;;;;;;;;0.10;88.60;;;;;;5034808;28;20464;-89
2021/12/22 00:54:28;;;;;;;;;;;0.10;88.50;;;;;;5009240;28;19909;-89
2021/12/22 00:57:02;;;;;;;;;;;0.10;88.40;;;;;;5033264;28;20201;-88
2021/12/22 00:59:29;;;;;;;;;;;0.00;88.20;;;;;;5019767;28;19927;-89
2021/12/22 01:01:56;;;;;;;;;;;0.10;88.30;;;;;;5024957;28;19927;-88
2021/12/22 01:04:22;;;;;;;;;;;0.00;88.40;;;;;;5018067;28;19908;-88
2021/12/22 01:06:49;;;;;;;;;;;0.00;88.30;;;;;;5020036;28;20062;-88
2021/12/22 01:09:16;;;;;;;;;;;0.00;88.30;;;;;;5018128;28;19916;-88
2021/12/22 01:11:43;;;;;;;;;;;0.00;88.10;;;;;;5023726;28;20095;-88
2021/12/22 01:14:10;;;;;;;;;;;0.00;88.10;;;;;;5030120;28;19930;-88
2021/12/22 01:16:37;;;;;;;;;;;0.00;88.10;;;;;;5019130;28;19908;-88
2021/12/22 01:19:10;;;;;;;;;;;0.00;88.20;;;;;;5026611;28;20243;-88
2021/12/22 01:21:46;;;;;;;;;;;0.00;88.30;;;;;;5023834;28;19909;-88
2021/12/22 01:24:20;;;;;;;;;;;0.00;88.30;;;;;;5028328;28;20526;-88
2021/12/22 01:26:52;;;;;;;;;;;0.00;88.40;;;;;;5013894;28;20598;-88
2021/12/22 01:29:19;;;;;;;;;;;-0.10;88.40;;;;;;5024271;28;19905;-88
2021/12/22 01:31:47;;;;;;;;;;;0.00;88.50;;;;;;5020527;28;20109;-88
2021/12/22 01:34:14;;;;;;;;;;;0.00;88.50;;;;;;5023453;28;20201;-88
2021/12/22 01:36:41;;;;;;;;;;;-0.10;88.50;;;;;;5018966;28;19909;-88
2021/12/22 01:39:08;;;;;;;;;;;0.00;88.60;;;;;;5030532;28;19917;-88
2021/12/22 01:41:35;;;;;;;;;;;0.00;88.60;;;;;;5017771;28;19916;-88
2021/12/22 01:44:02;;;;;;;;;;;0.00;88.70;;;;;;5043495;28;19909;-88
2021/12/22 01:49:36;;;;;;;;;;;0.00;88.60;;;;;;5013673;28;19919;-87
2021/12/22 01:52:04;;;;;;;;;;;0.00;88.40;;;;;;5038078;28;19909;-88
2021/12/22 01:54:39;;;;;;;;;;;0.00;88.40;;;;;;5017328;28;19915;-88
2021/12/22 01:57:10;;;;;;;;;;;0.00;88.40;;;;;;5037180;28;19908;-88
2021/12/22 01:59:39;;;;;;;;;;;-0.10;88.20;;;;;;5017767;28;19923;-87
2021/12/22 02:02:07;;;;;;;;;;;-0.10;88.20;;;;;;5024807;28;20380;-88
2021/12/22 02:04:35;;;;;;;;;;;-0.10;88.20;;;;;;5020376;28;19931;-88
2021/12/22 02:07:02;;;;;;;;;;;-0.10;88.20;;;;;;5011068;28;19908;-88
2021/12/22 02:12:14;;;;;;;;;;;-0.10;88.10;;;;;;5024944;28;20305;-87
2021/12/22 02:14:42;;;;;;;;;;;-0.10;88.10;;;;;;5018318;28;20549;-87
2021/12/22 02:17:11;;;;;;;;;;;-0.10;88.10;;;;;;5022554;28;20320;-87
2021/12/22 02:19:39;;;;;;;;;;;-0.20;88.10;;;;;;5033840;28;19927;-87
2021/12/22 02:22:10;;;;;;;;;;;-0.20;88.00;;;;;;5030253;28;20459;-87
2021/12/22 02:24:37;;;;;;;;;;;-0.20;88.10;;;;;;5025612;28;19913;-87
2021/12/22 02:27:10;;;;;;;;;;;-0.20;88.10;;;;;;5025037;28;19916;-87
2021/12/22 02:29:39;;;;;;;;;;;-0.20;88.10;;;;;;5020027;28;19913;-87
2021/12/22 02:32:31;;;;;;;;;;;-0.20;88.00;;;;;;5019314;28;19917;-87
2021/12/22 02:35:02;;;;;;;;;;;-0.20;88.10;;;;;;5029599;28;19921;-87
2021/12/22 02:37:30;;;;;;;;;;;-0.20;88.10;;;;;;5022198;28;19908;-87
2021/12/22 02:39:59;;;;;;;;;;;-0.20;88.10;;;;;;5030350;28;19946;-86
2021/12/22 02:42:31;;;;;;;;;;;-0.20;88.10;;;;;;5034837;28;19915;-88
2021/12/22 02:45:18;;;;;;;;;;;-0.20;88.10;;;;;;5021743;28;19917;-88
2021/12/22 02:47:45;;;;;;;;;;;-0.20;88.10;;;;;;5023877;28;20454;-88
2021/12/22 02:50:13;;;;;;;;;;;-0.20;87.90;;;;;;5018439;28;19912;-89
2021/12/22 02:53:02;;;;;;;;;;;-0.20;87.90;;;;;;5022916;28;19909;-88
2021/12/22 02:55:41;;;;;;;;;;;-0.20;87.90;;;;;;5023684;28;19913;-86
2021/12/22 02:58:10;;;;;;;;;;;-0.20;87.70;;;;;;5044363;28;20098;-86
2021/12/22 03:00:50;;;;;;;;;;;-0.30;87.70;;;;;;5017871;28;20429;-86
2021/12/22 03:06:07;;;;;;;;;;;-0.30;87.90;;;;;;5018315;28;19935;-86
2021/12/22 03:08:34;;;;;;;;;;;-0.30;88.00;;;;;;5020410;28;20277;-86
2021/12/22 03:11:01;;;;;;;;;;;-0.30;88.10;;;;;;5017753;28;19909;-86
2021/12/22 03:13:30;;;;;;;;;;;-0.30;88.10;;;;;;5017618;28;19923;-86
2021/12/22 03:15:57;;;;;;;;;;;-0.30;88.10;;;;;;5022577;28;20110;-86
2021/12/22 03:18:24;;;;;;;;;;;-0.20;88.20;;;;;;5014623;28;20318;-86
2021/12/22 03:21:00;;;;;;;;;;;-0.20;88.20;;;;;;5034674;28;20102;-86
2021/12/22 03:23:27;;;;;;;;;;;-0.20;88.20;;;;;;5003934;28;19909;-86
2021/12/22 03:25:54;;;;;;;;;;;-0.20;88.20;;;;;;5034540;28;20030;-86
2021/12/22 03:28:21;;;;;;;;;;;-0.20;88.10;;;;;;5025590;28;19921;-86
2021/12/22 03:30:48;;;;;;;;;;;-0.30;88.10;;;;;;5013088;28;20410;-86
2021/12/22 03:33:15;;;;;;;;;;;-0.20;88.10;;;;;;5027077;28;20007;-86
2021/12/22 03:35:42;;;;;;;;;;;-0.20;88.80;;;;;;5013670;28;19909;-86
2021/12/22 03:38:09;;;;;;;;;;;-0.20;88.10;;;;;;4998318;28;19915;-86
2021/12/22 03:40:36;;;;;;;;;;;-0.30;88.00;;;;;;5026814;28;19913;-86
2021/12/22 03:43:02;;;;;;;;;;;-0.20;88.10;;;;;;5024243;28;19918;-86
2021/12/22 03:45:29;;;;;;;;;;;-0.30;88.00;;;;;;5019446;28;19924;-86
2021/12/22 03:47:56;;;;;;;;;;;-0.30;88.90;;;;;;5022246;28;20396;-86
2021/12/22 03:50:23;;;;;;;;;;;-0.30;88.10;;;;;;5035438;28;20276;-86
2021/12/22 03:52:50;;;;;;;;;;;-0.20;88.60;;;;;;5021041;28;20019;-86
2021/12/22 03:55:17;;;;;;;;;;;-0.30;88.10;;;;;;5011616;28;19915;-86
2021/12/22 03:57:44;;;;;;;;;;;-0.30;88.00;;;;;;4999117;28;20009;-86
2021/12/22 04:00:12;;;;;;;;;;;-0.30;87.90;;;;;;5047386;28;19913;-86
2021/12/22 04:02:39;;;;;;;;;;;-0.30;87.90;;;;;;5017846;28;20000;-86
2021/12/22 04:05:07;;;;;;;;;;;-0.30;87.80;;;;;;5014082;28;19915;-86
2021/12/22 04:07:34;;;;;;;;;;;-0.30;87.80;;;;;;5019233;28;19917;-86
2021/12/22 04:10:09;;;;;;;;;;;-0.30;87.70;;;;;;5009404;28;19915;-86
2021/12/22 04:12:36;;;;;;;;;;;-0.30;87.80;;;;;;5005546;28;19909;-86
2021/12/22 04:15:03;;;;;;;;;;;-0.30;87.90;;;;;;5025571;28;20366;-86
2021/12/22 04:17:29;;;;;;;;;;;-0.30;88.20;;;;;;5024023;28;19913;-86
2021/12/22 04:19:56;;;;;;;;;;;-0.30;88.70;;;;;;5024426;28;19912;-88
2021/12/22 04:22:23;;;;;;;;;;;-0.20;89.20;;;;;;5027333;28;20232;-88
2021/12/22 04:24:50;;;;;;;;;;;-0.20;89.30;;;;;;5012338;28;19927;-88
2021/12/22 04:27:17;;;;;;;;;;;-0.20;89.40;;;;;;5025813;28;20384;-88
2021/12/22 04:29:44;;;;;;;;;;;-0.10;89.40;;;;;;5009537;28;20102;-88
2021/12/22 04:32:10;;;;;;;;;;;-0.10;89.20;;;;;;5028695;28;19948;-88
2021/12/22 04:34:37;;;;;;;;;;;-0.10;89.00;;;;;;5014054;28;20104;-86
2021/12/22 04:37:04;;;;;;;;;;;-0.20;88.70;;;;;;5031207;28;19909;-86
2021/12/22 04:39:33;;;;;;;;;;;-0.20;88.50;;;;;;5008394;28;19919;-86
2021/12/22 04:42:00;;;;;;;;;;;-0.10;88.40;;;;;;5019832;28;20144;-86
2021/12/22 04:44:27;;;;;;;;;;;-0.20;88.20;;;;;;5013260;28;19909;-86
2021/12/22 04:46:53;;;;;;;;;;;-0.20;88.10;;;;;;5024116;28;20467;-86
2021/12/22 04:49:20;;;;;;;;;;;-0.20;87.90;;;;;;5013732;28;19909;-86
2021/12/22 04:51:53;;;;;;;;;;;-0.20;87.90;;;;;;5003990;28;19917;-86
2021/12/22 04:56:49;;;;;;;;;;;-0.30;87.70;;;;;;5009004;28;20799;-86
2021/12/22 04:59:16;;;;;;;;;;;-0.30;87.60;;;;;;5021466;28;19913;-86
2021/12/22 05:01:43;;;;;;;;;;;-0.30;87.60;;;;;;5029665;28;20113;-86
2021/12/22 05:04:10;;;;;;;;;;;-0.30;87.60;;;;;;5036145;28;20285;-86
2021/12/22 05:06:37;;;;;;;;;;;-0.30;87.60;;;;;;5020774;28;20269;-86
2021/12/22 05:09:04;;;;;;;;;;;-0.30;87.60;;;;;;5034193;28;20285;-86
2021/12/22 05:11:32;;;;;;;;;;;-0.30;87.60;;;;;;5015172;28;19915;-86
2021/12/22 05:13:59;;;;;;;;;;;-0.40;87.50;;;;;;5008633;28;19908;-87
2021/12/22 05:16:26;;;;;;;;;;;-0.40;87.40;;;;;;5022645;28;19919;-86
2021/12/22 05:19:11;;;;;;;;;;;-0.40;87.40;;;;;;5019305;28;20120;-87
2021/12/22 05:21:37;;;;;;;;;;;-0.40;87.40;;;;;;5014640;28;20381;-87
2021/12/22 05:24:04;;;;;;;;;;;-0.40;87.30;;;;;;5032429;28;20396;-86
2021/12/22 05:26:31;;;;;;;;;;;-0.40;87.20;;;;;;5020016;28;19915;-86
2021/12/22 05:28:58;;;;;;;;;;;-0.40;87.30;;;;;;5017554;28;20072;-87
2021/12/22 05:31:26;;;;;;;;;;;-0.40;87.30;;;;;;5010816;28;19909;-87
2021/12/22 05:33:53;;;;;;;;;;;-0.40;87.40;;;;;;5031235;28;20463;-87
2021/12/22 05:36:19;;;;;;;;;;;-0.40;87.30;;;;;;5024656;28;19931;-87
2021/12/22 05:38:46;;;;;;;;;;;-0.40;87.40;;;;;;5020245;28;19917;-86
2021/12/22 05:41:13;;;;;;;;;;;-0.40;87.30;;;;;;5029853;28;19919;-86
2021/12/22 05:43:40;;;;;;;;;;;-0.40;87.40;;;;;;4991399;28;20649;-87
2021/12/22 05:46:07;;;;;;;;;;;-0.30;87.90;;;;;;5030428;28;20275;-87
2021/12/22 05:48:34;;;;;;;;;;;-0.30;87.40;;;;;;5024691;28;19909;-87
2021/12/22 05:51:02;;;;;;;;;;;-0.40;87.20;;;;;;5021788;28;19909;-87
2021/12/22 05:53:29;;;;;;;;;;;-0.40;87.20;;;;;;5016172;28;20281;-87
2021/12/22 05:55:57;;;;;;;;;;;-0.30;87.20;;;;;;5020572;28;20013;-87
2021/12/22 05:58:24;;;;;;;;;;;-0.30;87.20;;;;;;5015120;28;19909;-87
2021/12/22 06:00:51;;;;;;;;;;;-0.30;87.20;;;;;;5017942;28;20189;-89
2021/12/22 06:03:17;;;;;;;;;;;-0.30;87.20;;;;;;5026566;28;20289;-89
2021/12/22 06:05:45;;;;;;;;;;;-0.30;87.10;;;;;;5035808;28;19909;-89
2021/12/22 06:08:11;;;;;;;;;;;-0.30;87.10;;;;;;5015560;28;20308;-89
2021/12/22 06:10:38;;;;;;;;;;;-0.30;87.10;;;;;;5007557;28;20011;-89
2021/12/22 06:13:06;;;;;;;;;;;-0.30;86.90;;;;;;5018512;28;19913;-89
2021/12/22 06:15:33;;;;;;;;;;;-0.30;86.90;;;;;;5018495;28;20345;-89
2021/12/22 06:18:01;;;;;;;;;;;-0.30;86.90;;;;;;5034341;28;19923;-89
2021/12/22 06:20:29;;;;;;;;;;;-0.30;86.90;;;;;;5019777;28;19927;-89
2021/12/22 06:22:56;;;;;;;;;;;-0.30;86.80;;;;;;5023159;28;20380;-89
2021/12/22 06:25:23;;;;;;;;;;;-0.30;86.80;;;;;;5013199;28;19919;-89
2021/12/22 06:27:51;;;;;;;;;;;-0.30;86.70;;;;;;5019367;28;19909;-89
2021/12/22 06:30:20;;;;;;;;;;;-0.30;86.50;;;;;;5012988;28;21309;-89
2021/12/22 06:32:48;;;;;;;;;;;-0.30;86.40;;;;;;5024950;28;20380;-89
2021/12/22 06:35:15;;;;;;;;;;;-0.30;86.30;;;;;;5013840;28;19917;-89
2021/12/22 06:37:42;;;;;;;;;;;-0.40;86.10;;;;;;5011594;28;21256;-89
2021/12/22 06:40:09;;;;;;;;;;;-0.40;86.10;;;;;;5008444;28;22195;-89
2021/12/22 06:42:39;;;;;;;;;;;-0.40;86.20;;;;;;5029968;28;19920;-87
2021/12/22 06:45:07;;;;;;;;;;;-0.40;86.20;;;;;;5009199;28;20087;-87
2021/12/22 06:47:34;;;;;;;;;;;-0.40;86.00;;;;;;5020768;28;19909;-87
2021/12/22 06:50:01;;;;;;;;;;;-0.50;85.90;;;;;;5026821;28;19998;-87
2021/12/22 06:52:28;;;;;;;;;;;-0.50;85.80;;;;;;5034494;28;19909;-87
2021/12/22 06:54:56;;;;;;;;;;;-0.50;85.80;;;;;;5006649;28;19943;-87
2021/12/22 06:57:23;;;;;;;;;;;-0.50;85.70;;;;;;5030909;28;20370;-87
2021/12/22 06:59:50;;;;;;;;;;;-0.50;85.70;;;;;;5007652;28;19917;-89
2021/12/22 07:02:17;;;;;;;;;;;-0.50;85.60;;;;;;5009527;28;19917;-88
2021/12/22 07:04:44;;;;;;;;;;;-0.50;85.60;;;;;;5008062;28;19923;-87
2021/12/22 07:07:11;;;;;;;;;;;-0.60;85.40;;;;;;5016558;28;20117;-87
2021/12/22 07:09:38;;;;;;;;;;;-0.60;85.40;;;;;;5022542;28;19915;-89
2021/12/22 07:12:05;;;;;;;;;;;-0.60;85.40;;;;;;5012309;28;20404;-89
2021/12/22 07:14:32;;;;;;;;;;;-0.60;86.10;;;;;;5023267;28;20251;-90
2021/12/22 07:16:59;;;;;;;;;;;-0.60;85.40;;;;;;4998274;28;19917;-89
2021/12/22 07:19:26;;;;;;;;;;;-0.60;85.40;;;;;;5027603;28;19911;-90
2021/12/22 07:21:54;;;;;;;;;;;-0.60;85.40;;;;;;4991068;28;19921;-89
2021/12/22 07:24:22;;;;;;;;;;;-0.60;85.40;;;;;;4996249;28;19909;-88
2021/12/22 07:26:49;;;;;;;;;;;-0.60;85.40;;;;;;4990659;28;20477;-88
2021/12/22 07:29:16;;;;;;;;;;;-0.60;85.40;;;;;;5023370;28;19923;-88
2021/12/22 07:31:42;;;;;;;;;;;-0.60;85.40;;;;;;5021055;28;19913;-88
2021/12/22 07:34:27;;;;;;;;;;;-0.60;85.40;;;;;;5022972;28;19924;-88
2021/12/22 07:37:13;;;;;;;;;;;-0.60;85.40;;;;;;5026025;28;20429;-88
2021/12/22 07:39:40;;;;;;;;;;;-0.60;85.40;;;;;;5020193;28;19908;-87
2021/12/22 07:42:07;;;;;;;;;;;-0.60;85.40;;;;;;5020464;28;19917;-88
2021/12/22 07:44:34;;;;;;;;;;;-0.60;85.40;;;;;;4995036;28;20148;-88
2021/12/22 07:47:00;;;;;;;;;;;-0.60;85.30;;;;;;5000387;28;19908;-88
2021/12/22 07:49:28;;;;;;;;;;;-0.70;85.20;;;;;;5022362;28;19935;-88
2021/12/22 07:51:55;;;;;;;;;;;-0.70;85.30;;;;;;5005088;28;19913;-88
2021/12/22 07:54:22;;;;;;;;;;;-0.70;85.30;;;;;;5021545;28;20109;-88
2021/12/22 07:56:49;;;;;;;;;;;-0.70;85.40;;;;;;5019727;28;20521;-88
2021/12/22 07:59:16;;;;;;;;;;;-0.60;85.60;;;;;;4992239;28;19917;-88
2021/12/22 08:01:43;;;;;;;;;;;-0.60;85.80;;;;;;5027237;28;20472;-88
2021/12/22 08:04:09;;;;;;;;;;;-0.60;85.90;;;;;;4980002;28;19920;-88
2021/12/22 08:06:36;;;;;;;;;;;-0.60;86.10;;;;;;5013144;28;19923;-88
2021/12/22 08:09:03;;;;;;;;;;;-0.50;86.40;;;;;;5026826;28;19928;-88
2021/12/22 08:11:30;;;;;;;;;;;-0.50;86.60;;;;;;4988534;28;19939;-88
2021/12/22 08:13:57;;;;;;;;;;;-0.40;86.80;;;;;;5012277;28;19913;-88
2021/12/22 08:16:24;;;;;;;;;;;-0.40;87.00;;;;;;5029339;28;19909;-88
2021/12/22 08:18:51;;;;;;;;;;;-0.30;87.40;;;;;;5005984;28;20392;-88
2021/12/22 08:21:17;;;;;;;;;;;-0.20;87.90;;;;;;5004953;28;19991;-88
2021/12/22 08:23:44;;;;;;;;;;;-0.10;88.40;;;;;;5013390;28;19921;-88
2021/12/22 08:26:11;;;;;;;;;;;0.00;88.70;;;;;;5014232;28;20449;-88
2021/12/22 08:28:38;;;;;;;;;;;0.10;89.00;;;;;;5015511;28;20349;-88
2021/12/22 08:31:05;;;;;;;;;;;0.20;89.20;;;;;;5021935;28;19908;-88
2021/12/22 08:33:38;;;;;;;;;;;0.30;89.60;;;;;;5023334;28;19920;-88
2021/12/22 08:38:51;;;;;;;;;;;0.60;90.10;;;;;;5025072;28;19939;-87
2021/12/22 08:41:26;;;;;;;;;;;0.70;90.30;;;;;;5043002;28;19913;-87
2021/12/22 08:43:54;;;;;;;;;;;0.80;90.30;;;;;;5014929;28;20159;-87
2021/12/22 08:46:21;;;;;;;;;;;0.90;90.40;;;;;;5010660;28;20207;-87
2021/12/22 08:48:48;;;;;;;;;;;1.00;90.40;;;;;;5030053;28;19912;-87
2021/12/22 08:51:15;;;;;;;;;;;1.10;90.40;;;;;;5011271;28;20386;-87
2021/12/22 08:53:42;;;;;;;;;;;1.10;90.30;;;;;;5036263;28;19915;-87
2021/12/22 08:56:09;;;;;;;;;;;1.20;90.30;;;;;;5032866;28;20686;-87
2021/12/22 08:58:36;;;;;;;;;;;1.30;90.40;;;;;;5033350;28;20269;-87
2021/12/22 09:01:03;;;;;;;;;;;1.30;90.40;;;;;;5012668;28;19908;-87
2021/12/22 09:03:30;;;;;;;;;;;1.40;90.50;;;;;;5024538;28;19931;-87
2021/12/22 09:05:57;;;;;;;;;;;1.50;90.60;;;;;;5020561;28;19912;-87
2021/12/22 09:08:24;;;;;;;;;;;1.50;90.80;;;;;;5034168;28;20476;-87
2021/12/22 09:10:51;;;;;;;;;;;1.60;90.90;;;;;;5031029;28;19909;-87
2021/12/22 09:13:19;;;;;;;;;;;1.70;91.00;;;;;;5012196;28;19917;-87
2021/12/22 09:15:47;;;;;;;;;;;1.80;91.10;;;;;;5011899;28;19919;-87
2021/12/22 09:18:15;;;;;;;;;;;1.90;91.20;;;;;;5016140;28;20046;-87
2021/12/22 09:20:41;;;;;;;;;;;2.00;91.30;;;;;;5022424;28;19908;-87
2021/12/22 09:23:08;;;;;;;;;;;2.10;91.40;;;;;;5020279;28;19928;-87
2021/12/22 09:25:35;;;;;;;;;;;2.20;91.50;;;;;;5026455;28;19909;-87
2021/12/22 09:28:02;;;;;;;;;;;2.30;91.60;;;;;;5026882;28;19924;-87
2021/12/22 09:30:35;;;;;;;;;;;2.50;91.90;;;;;;5020366;28;19923;-87
2021/12/22 09:33:03;;;;;;;;;;;2.60;92.10;;;;;;5019249;28;19923;-87
2021/12/22 09:35:30;;;;;;;;;;;2.80;92.20;;;;;;5015562;28;19909;-87
2021/12/22 09:37:57;;;;;;;;;;;2.90;92.40;;;;;;5015435;28;19919;-86
2021/12/22 09:40:23;;;;;;;;;;;3.10;92.60;;;;;;5027971;28;20215;-86
2021/12/22 09:42:50;;;;;;;;;;;3.30;92.80;;;;;;5006326;28;19920;-86
2021/12/22 09:45:19;;;;;;;;;;;3.60;93.10;;;;;;5017058;28;19996;-86
2021/12/22 09:48:14;;;;;;;;;;;3.80;93.30;;;;;;5012664;28;19913;-86
2021/12/22 09:53:13;;;;;;;;;;;4.40;93.50;;;;;;5017173;28;19955;-86
2021/12/22 09:55:40;;;;;;;;;;;4.70;93.70;;;;;;5035497;28;19913;-86
2021/12/22 09:58:09;;;;;;;;;;;4.90;93.90;;;;;;5018078;28;19919;-86
2021/12/22 10:00:37;;;;;;;;;;;5.10;93.80;;;;;;5028003;28;19909;-86
2021/12/22 10:03:04;;;;;;;;;;;5.20;93.70;;;;;;5022831;28;19916;-87
2021/12/22 10:05:31;;;;;;;;;;;5.40;93.70;;;;;;5035200;28;19915;-86
2021/12/22 10:08:15;;;;;;;;;;;5.60;93.90;;;;;;5012361;28;19913;-87
2021/12/22 10:10:44;;;;;;;;;;;5.80;94.00;;;;;;5036812;28;20349;-86
2021/12/22 10:13:15;;;;;;;;;;;6.10;94.10;;;;;;5013583;28;20003;-86
2021/12/22 10:15:42;;;;;;;;;;;6.40;94.20;;;;;;5012394;28;19917;-87
2021/12/22 10:18:17;;;;;;;;;;;6.70;94.30;;;;;;5009742;28;19923;-87
2021/12/22 10:20:44;;;;;;;;;;;6.90;94.30;;;;;;5029118;28;19912;-87
2021/12/22 10:23:29;;;;;;;;;;;7.10;94.10;;;;;;5021032;28;20502;-87
2021/12/22 10:25:57;;;;;;;;;;;7.30;94.10;;;;;;5031946;28;19909;-87
2021/12/22 10:28:25;;;;;;;;;;;7.60;94.00;;;;;;5006888;28;19913;-87
2021/12/22 10:30:56;;;;;;;;;;;7.80;94.10;;;;;;5015508;28;19913;-87
2021/12/22 10:33:24;;;;;;;;;;;8.10;94.10;;;;;;5024078;28;19916;-87
2021/12/22 10:35:53;;;;;;;;;;;8.30;94.20;;;;;;5009659;28;20389;-86
2021/12/22 10:38:21;;;;;;;;;;;8.60;94.00;;;;;;5034173;28;20327;-87
2021/12/22 10:40:50;;;;;;;;;;;8.70;93.80;;;;;;5025525;28;19919;-87
2021/12/22 10:43:19;;;;;;;;;;;8.90;93.90;;;;;;5026390;28;19927;-87
2021/12/22 10:45:47;;;;;;;;;;;9.10;94.00;;;;;;5039141;28;19908;-87
2021/12/22 10:51:05;;;;;;;;;;;9.50;93.90;;;;;;5013609;28;19947;-87
2021/12/22 10:53:39;;;;;;;;;;;9.60;93.50;;;;;;5014423;28;19919;-87
2021/12/22 10:56:06;;;;;;;;;;;9.80;93.10;;;;;;5035335;28;20116;-87
2021/12/22 10:58:34;;;;;;;;;;;9.80;92.80;;;;;;5036874;28;20373;-87
2021/12/22 11:01:12;;;;;;;;;;;9.90;92.50;;;;;;5016344;28;20095;-87
2021/12/22 11:03:44;;;;;;;;;;;9.90;92.50;;;;;;5020925;28;19917;-87
2021/12/22 11:06:16;;;;;;;;;;;9.90;92.10;;;;;;5007920;28;19916;-87
2021/12/22 11:08:53;;;;;;;;;;;9.90;92.20;;;;;;5018475;28;19916;-87
2021/12/22 11:11:20;;;;;;;;;;;9.70;92.10;;;;;;5008082;28;19909;-87
2021/12/22 11:14:00;;;;;;;;;;;9.60;92.00;;;;;;5019517;28;20384;-87
2021/12/22 11:16:27;;;;;;;;;;;9.50;92.00;;;;;;5035949;28;20241;-87
2021/12/22 11:18:54;;;;;;;;;;;9.40;91.90;;;;;;5014460;28;19944;-87
2021/12/22 11:21:28;;;;;;;;;;;9.30;91.60;;;;;;5022268;28;19913;-87
2021/12/22 11:23:55;;;;;;;;;;;9.20;91.50;;;;;;5007356;28;19931;-86
2021/12/22 11:26:22;;;;;;;;;;;9.10;91.60;;;;;;5033057;28;20281;-86
2021/12/22 11:28:49;;;;;;;;;;;9.10;91.80;;;;;;5016474;28;19913;-86
2021/12/22 11:31:16;;;;;;;;;;;9.10;91.90;;;;;;5020491;28;20254;-86
2021/12/22 11:33:45;;;;;;;;;;;9.20;91.90;;;;;;5014293;28;19924;-86
2021/12/22 11:36:12;;;;;;;;;;;9.30;91.90;;;;;;5014136;28;20254;-86
2021/12/22 11:38:42;;;;;;;;;;;9.40;92.00;;;;;;5021580;28;20474;-86
2021/12/22 11:41:16;;;;;;;;;;;9.60;92.20;;;;;;5012114;28;20200;-86
2021/12/22 11:43:43;;;;;;;;;;;9.70;92.40;;;;;;5038358;28;19920;-86
2021/12/22 11:46:11;;;;;;;;;;;9.90;92.20;;;;;;5028940;28;20053;-86
2021/12/22 11:48:40;;;;;;;;;;;10.00;92.10;;;;;;5008834;28;19939;-86
2021/12/22 11:51:21;;;;;;;;;;;10.30;92.10;;;;;;5025268;28;19908;-86
2021/12/22 11:53:58;;;;;;;;;;;10.40;91.90;;;;;;5035278;28;20317;-86
2021/12/22 11:56:36;;;;;;;;;;;10.70;91.60;;;;;;5016097;28;20436;-86
2021/12/22 11:59:04;;;;;;;;;;;10.90;91.60;;;;;;5022998;28;19909;-86
2021/12/22 12:01:31;;;;;;;;;;;11.10;91.70;;;;;;5016863;28;20424;-86
2021/12/22 12:04:11;;;;;;;;;;;11.30;91.90;;;;;;5020213;28;20410;-86
2021/12/22 12:06:49;;;;;;;;;;;11.40;92.00;;;;;;5013855;28;19913;-87
2021/12/22 12:09:20;;;;;;;;;;;11.50;90.80;;;;;;5018894;28;20412;-86
2021/12/22 12:11:52;;;;;;;;;;;11.50;91.20;;;;;;5022472;28;20117;-86
2021/12/22 12:14:33;;;;;;;;;;;11.40;91.10;;;;;;5034902;28;19908;-86
2021/12/22 12:23:20;;;;;;;;;;;10.80;90.90;;;;;;5024158;28;19919;-86
2021/12/22 12:25:46;;;;;;;;;;;10.60;90.90;;;;;;5020690;28;19917;-86
2021/12/22 12:28:14;;;;;;;;;;;10.60;91.20;;;;;;5015393;28;19919;-86
2021/12/22 12:30:42;;;;;;;;;;;10.50;91.00;;;;;;5021362;28;20451;-86
2021/12/22 12:33:10;;;;;;;;;;;10.60;91.10;;;;;;5017620;28;19925;-86
2021/12/22 12:35:39;;;;;;;;;;;10.50;91.00;;;;;;5010951;28;20155;-87
2021/12/22 12:38:08;;;;;;;;;;;10.60;90.90;;;;;;5019046;28;20277;-86
2021/12/22 12:40:54;;;;;;;;;;;10.50;90.90;;;;;;5009335;28;19944;-86
2021/12/22 12:43:40;;;;;;;;;;;10.50;90.80;;;;;;5016827;28;19916;-86
2021/12/22 12:46:37;;;;;;;;;;;10.50;91.30;;;;;;5036526;28;19927;-86
2021/12/22 12:49:04;;;;;;;;;;;10.50;91.30;;;;;;5011804;28;19940;-86
2021/12/22 12:51:34;;;;;;;;;;;10.50;91.40;;;;;;5011533;28;20135;-86
2021/12/22 12:54:05;;;;;;;;;;;10.40;91.50;;;;;;5028297;28;20373;-86
2021/12/22 12:56:39;;;;;;;;;;;10.40;91.90;;;;;;5016974;28;20003;-86
2021/12/22 12:59:07;;;;;;;;;;;10.40;92.10;;;;;;5034296;28;19912;-86
2021/12/22 13:01:52;;;;;;;;;;;10.40;92.00;;;;;;5010134;28;20546;-86
2021/12/22 13:04:23;;;;;;;;;;;10.30;92.00;;;;;;5016148;28;20358;-86
2021/12/22 13:06:51;;;;;;;;;;;10.40;91.90;;;;;;5021942;28;19915;-86
2021/12/22 13:09:22;;;;;;;;;;;10.40;92.00;;;;;;5011982;28;19913;-86
2021/12/22 13:12:09;;;;;;;;;;;10.50;92.30;;;;;;5019833;28;19913;-86
2021/12/22 13:17:23;;;;;;;;;;;10.50;92.00;;;;;;5020055;28;19919;-86
2021/12/22 13:19:55;;;;;;;;;;;10.50;92.10;;;;;;5007323;28;20392;-86
2021/12/22 13:22:23;;;;;;;;;;;10.60;92.30;;;;;;5037447;28;19919;-86
2021/12/22 13:25:11;;;;;;;;;;;10.70;92.20;;;;;;5036644;28;19919;-86
2021/12/22 13:27:39;;;;;;;;;;;10.80;92.90;;;;;;5046106;28;19916;-86
2021/12/22 13:30:13;;;;;;;;;;;11.00;92.70;;;;;;5017139;28;20113;-86
2021/12/22 13:32:59;;;;;;;;;;;11.10;92.70;;;;;;5035073;28;20445;-86
2021/12/22 13:35:34;;;;;;;;;;;11.20;93.10;;;;;;5023084;28;19909;-86
2021/12/22 13:38:03;;;;;;;;;;;11.40;92.90;;;;;;5016606;28;20133;-86
2021/12/22 13:40:40;;;;;;;;;;;11.60;93.10;;;;;;5026413;28;20322;-86
2021/12/22 13:43:16;;;;;;;;;;;11.60;93.10;;;;;;5015279;28;19936;-86
2021/12/22 13:45:43;;;;;;;;;;;11.70;92.60;;;;;;5018953;28;19912;-86
2021/12/22 13:48:17;;;;;;;;;;;11.80;92.20;;;;;;5023142;28;19915;-86
2021/12/22 13:50:44;;;;;;;;;;;11.80;92.30;;;;;;5032954;28;19934;-86
2021/12/22 13:53:12;;;;;;;;;;;11.70;92.10;;;;;;5018539;28;20327;-86
2021/12/22 13:55:39;;;;;;;;;;;11.60;91.50;;;;;;5033842;28;20082;-86
2021/12/22 13:58:25;;;;;;;;;;;11.40;91.20;;;;;;4995370;28;20317;-86
2021/12/22 14:01:08;;;;;;;;;;;11.30;90.90;;;;;;5012926;28;20361;-86
2021/12/22 14:03:35;;;;;;;;;;;11.10;91.30;;;;;;5011517;28;20086;-86
2021/12/22 14:06:08;;;;;;;;;;;10.90;91.20;;;;;;5016073;28;19921;-86
2021/12/22 14:08:36;;;;;;;;;;;10.80;91.30;;;;;;5034417;28;19909;-86
2021/12/22 14:11:23;;;;;;;;;;;10.70;91.10;;;;;;5012572;28;19909;-86
2021/12/22 14:13:49;;;;;;;;;;;10.60;90.70;;;;;;5007658;28;19913;-86
2021/12/22 14:16:26;;;;;;;;;;;10.50;90.30;;;;;;5035197;28;19912;-86
2021/12/22 14:18:54;;;;;;;;;;;10.30;90.30;;;;;;5013478;28;19908;-86
2021/12/22 14:21:25;;;;;;;;;;;10.20;90.40;;;;;;5029119;28;19908;-86
2021/12/22 14:23:59;;;;;;;;;;;10.00;90.20;;;;;;5032369;28;20366;-86
2021/12/22 14:26:27;;;;;;;;;;;9.80;89.40;;;;;;5026776;28;19919;-86
2021/12/22 14:29:04;;;;;;;;;;;9.50;89.00;;;;;;5012120;28;19917;-86
2021/12/22 14:31:32;;;;;;;;;;;9.40;88.90;;;;;;5025472;28;19905;-86
2021/12/22 14:34:08;;;;;;;;;;;9.20;88.50;;;;;;5008458;28;20292;-86
2021/12/22 14:36:45;;;;;;;;;;;9.00;87.70;;;;;;5046228;28;19913;-86
2021/12/22 14:39:12;;;;;;;;;;;8.90;88.00;;;;;;5025700;28;20121;-86
2021/12/22 14:41:40;;;;;;;;;;;8.70;88.30;;;;;;5018153;28;19999;-86
2021/12/22 14:44:23;;;;;;;;;;;8.50;88.70;;;;;;5008664;28;20299;-86
2021/12/22 14:46:54;;;;;;;;;;;8.40;87.70;;;;;;5018107;28;19923;-85
2021/12/22 14:49:22;;;;;;;;;;;8.20;87.40;;;;;;5012880;28;20267;-85
2021/12/22 14:51:50;;;;;;;;;;;8.10;87.50;;;;;;5020941;28;20148;-85
2021/12/22 14:54:20;;;;;;;;;;;7.90;87.40;;;;;;5026610;28;20512;-85
2021/12/22 14:56:49;;;;;;;;;;;7.80;87.70;;;;;;5011265;28;19909;-85
2021/12/22 14:59:16;;;;;;;;;;;7.70;88.10;;;;;;5009844;28;20302;-85
2021/12/22 15:01:44;;;;;;;;;;;7.60;87.80;;;;;;5022977;28;19913;-85